sensor_id;sensor_type;location;lat;lon;timestamp;P1;durP1;ratioP1;P2;durP2;ratioP2
8675;SDS011;4375;52.486;13.424;2023-05-23T00:00:21;24.73;;;4.70;;
8675;SDS011;4375;52.486;13.424;2023-05-23T00:02:47;18.80;;;4.90;;
8675;SDS011;4375;52.486;13.424;2023-05-23T00:05:13;19.03;;;4.70;;
8675;SDS011;4375;52.486;13.424;2023-05-23T00:07:42;23.23;;;4.80;;
8675;SDS011;4375;52.486;13.424;2023-05-23T00:10:10;19.83;;;5.07;;
8675;SDS011;4375;52.486;13.424;2023-05-23T00:12:37;20.30;;;4.70;;
8675;SDS011;4375;52.486;13.424;2023-05-23T00:15:06;19.20;;;5.10;;
8675;SDS011;4375;52.486;13.424;2023-05-23T00:17:32;18.60;;;5.10;;
8675;SDS011;4375;52.486;13.424;2023-05-23T00:20:01;17.97;;;4.70;;
8675;SDS011;4375;52.486;13.424;2023-05-23T00:22:27;17.97;;;5.23;;
8675;SDS011;4375;52.486;13.424;2023-05-23T00:24:53;21.33;;;5.73;;
8675;SDS011;4375;52.486;13.424;2023-05-23T00:27:21;21.77;;;4.93;;
8675;SDS011;4375;52.486;13.424;2023-05-23T00:29:47;20.43;;;5.20;;
8675;SDS011;4375;52.486;13.424;2023-05-23T00:32:13;18.80;;;4.70;;
8675;SDS011;4375;52.486;13.424;2023-05-23T00:34:38;23.23;;;5.43;;
8675;SDS011;4375;52.486;13.424;2023-05-23T00:37:04;18.83;;;5.30;;
8675;SDS011;4375;52.486;13.424;2023-05-23T00:39:30;23.97;;;4.50;;
8675;SDS011;4375;52.486;13.424;2023-05-23T00:41:56;18.43;;;4.90;;
8675;SDS011;4375;52.486;13.424;2023-05-23T00:44:22;18.70;;;4.63;;
8675;SDS011;4375;52.486;13.424;2023-05-23T00:46:51;18.43;;;5.00;;
8675;SDS011;4375;52.486;13.424;2023-05-23T00:49:20;20.40;;;4.40;;
8675;SDS011;4375;52.486;13.424;2023-05-23T00:51:46;20.87;;;5.07;;
8675;SDS011;4375;52.486;13.424;2023-05-23T00:54:13;18.00;;;4.63;;
8675;SDS011;4375;52.486;13.424;2023-05-23T00:56:42;16.97;;;4.30;;
8675;SDS011;4375;52.486;13.424;2023-05-23T00:59:08;18.33;;;4.23;;
8675;SDS011;4375;52.486;13.424;2023-05-23T01:01:34;18.00;;;4.90;;
8675;SDS011;4375;52.486;13.424;2023-05-23T01:04:01;20.67;;;5.10;;
8675;SDS011;4375;52.486;13.424;2023-05-23T01:06:28;18.33;;;5.57;;
8675;SDS011;4375;52.486;13.424;2023-05-23T01:08:54;21.53;;;5.00;;
8675;SDS011;4375;52.486;13.424;2023-05-23T01:11:32;20.37;;;4.47;;
8675;SDS011;4375;52.486;13.424;2023-05-23T01:14:28;22.47;;;5.10;;
8675;SDS011;4375;52.486;13.424;2023-05-23T01:17:05;21.47;;;5.50;;
8675;SDS011;4375;52.486;13.424;2023-05-23T01:25:10;19.37;;;4.90;;
8675;SDS011;4375;52.486;13.424;2023-05-23T01:30:16;18.80;;;5.40;;
8675;SDS011;4375;52.486;13.424;2023-05-23T01:32:45;20.37;;;4.87;;
8675;SDS011;4375;52.486;13.424;2023-05-23T01:35:17;18.83;;;5.50;;
8675;SDS011;4375;52.486;13.424;2023-05-23T01:37:48;19.60;;;5.80;;
8675;SDS011;4375;52.486;13.424;2023-05-23T01:40:14;20.30;;;5.63;;
8675;SDS011;4375;52.486;13.424;2023-05-23T01:42:39;21.07;;;5.20;;
8675;SDS011;4375;52.486;13.424;2023-05-23T01:45:06;19.80;;;4.87;;
8675;SDS011;4375;52.486;13.424;2023-05-23T01:47:32;25.37;;;6.30;;
8675;SDS011;4375;52.486;13.424;2023-05-23T01:49:59;19.43;;;4.87;;
8675;SDS011;4375;52.486;13.424;2023-05-23T01:52:26;19.50;;;5.43;;
8675;SDS011;4375;52.486;13.424;2023-05-23T01:54:52;21.27;;;5.10;;
8675;SDS011;4375;52.486;13.424;2023-05-23T01:57:19;17.70;;;4.73;;
8675;SDS011;4375;52.486;13.424;2023-05-23T01:59:46;18.40;;;5.00;;
8675;SDS011;4375;52.486;13.424;2023-05-23T02:02:11;23.30;;;4.80;;
8675;SDS011;4375;52.486;13.424;2023-05-23T02:04:37;27.53;;;5.73;;
8675;SDS011;4375;52.486;13.424;2023-05-23T02:07:03;21.80;;;5.57;;
8675;SDS011;4375;52.486;13.424;2023-05-23T02:09:29;18.93;;;4.93;;
8675;SDS011;4375;52.486;13.424;2023-05-23T02:11:55;17.70;;;5.00;;
8675;SDS011;4375;52.486;13.424;2023-05-23T02:14:21;16.87;;;4.50;;
8675;SDS011;4375;52.486;13.424;2023-05-23T02:16:48;20.30;;;5.03;;
8675;SDS011;4375;52.486;13.424;2023-05-23T02:19:13;18.70;;;5.27;;
8675;SDS011;4375;52.486;13.424;2023-05-23T02:21:39;20.07;;;5.30;;
8675;SDS011;4375;52.486;13.424;2023-05-23T02:24:05;25.40;;;5.00;;
8675;SDS011;4375;52.486;13.424;2023-05-23T02:26:30;18.73;;;5.10;;
8675;SDS011;4375;52.486;13.424;2023-05-23T02:28:56;23.37;;;5.10;;
8675;SDS011;4375;52.486;13.424;2023-05-23T02:31:22;25.13;;;5.50;;
8675;SDS011;4375;52.486;13.424;2023-05-23T02:33:47;17.97;;;5.00;;
8675;SDS011;4375;52.486;13.424;2023-05-23T02:36:13;19.50;;;5.23;;
8675;SDS011;4375;52.486;13.424;2023-05-23T02:38:39;19.10;;;5.00;;
8675;SDS011;4375;52.486;13.424;2023-05-23T02:41:04;37.33;;;5.40;;
8675;SDS011;4375;52.486;13.424;2023-05-23T02:43:30;19.07;;;5.50;;
8675;SDS011;4375;52.486;13.424;2023-05-23T02:45:56;18.83;;;5.53;;
8675;SDS011;4375;52.486;13.424;2023-05-23T02:48:22;18.67;;;4.80;;
8675;SDS011;4375;52.486;13.424;2023-05-23T02:50:47;19.50;;;5.33;;
8675;SDS011;4375;52.486;13.424;2023-05-23T02:53:13;21.57;;;5.53;;
8675;SDS011;4375;52.486;13.424;2023-05-23T02:55:38;19.07;;;6.23;;
8675;SDS011;4375;52.486;13.424;2023-05-23T02:58:04;19.50;;;5.63;;
8675;SDS011;4375;52.486;13.424;2023-05-23T03:00:31;19.67;;;5.57;;
8675;SDS011;4375;52.486;13.424;2023-05-23T03:02:56;23.33;;;5.40;;
8675;SDS011;4375;52.486;13.424;2023-05-23T03:05:22;18.43;;;5.40;;
8675;SDS011;4375;52.486;13.424;2023-05-23T03:07:48;21.43;;;5.77;;
8675;SDS011;4375;52.486;13.424;2023-05-23T03:10:15;20.07;;;5.30;;
8675;SDS011;4375;52.486;13.424;2023-05-23T03:12:41;20.40;;;5.70;;
8675;SDS011;4375;52.486;13.424;2023-05-23T03:15:08;18.80;;;6.13;;
8675;SDS011;4375;52.486;13.424;2023-05-23T03:17:34;20.30;;;5.57;;
8675;SDS011;4375;52.486;13.424;2023-05-23T03:19:59;21.30;;;5.87;;
8675;SDS011;4375;52.486;13.424;2023-05-23T03:22:25;22.00;;;5.57;;
8675;SDS011;4375;52.486;13.424;2023-05-23T03:24:51;18.50;;;4.90;;
8675;SDS011;4375;52.486;13.424;2023-05-23T03:27:16;19.63;;;6.20;;
8675;SDS011;4375;52.486;13.424;2023-05-23T03:29:42;20.80;;;5.70;;
8675;SDS011;4375;52.486;13.424;2023-05-23T03:32:07;21.70;;;5.93;;
8675;SDS011;4375;52.486;13.424;2023-05-23T03:34:33;22.17;;;5.97;;
8675;SDS011;4375;52.486;13.424;2023-05-23T03:37:00;20.47;;;5.80;;
8675;SDS011;4375;52.486;13.424;2023-05-23T03:39:26;18.33;;;5.67;;
8675;SDS011;4375;52.486;13.424;2023-05-23T03:41:51;22.63;;;6.17;;
8675;SDS011;4375;52.486;13.424;2023-05-23T03:44:17;20.80;;;5.70;;
8675;SDS011;4375;52.486;13.424;2023-05-23T03:46:42;22.80;;;5.97;;
8675;SDS011;4375;52.486;13.424;2023-05-23T03:49:08;19.93;;;5.90;;
8675;SDS011;4375;52.486;13.424;2023-05-23T03:51:34;21.53;;;6.03;;
8675;SDS011;4375;52.486;13.424;2023-05-23T03:54:00;21.80;;;6.47;;
8675;SDS011;4375;52.486;13.424;2023-05-23T03:56:25;19.90;;;6.00;;
8675;SDS011;4375;52.486;13.424;2023-05-23T03:58:51;23.00;;;6.70;;
8675;SDS011;4375;52.486;13.424;2023-05-23T04:01:16;21.23;;;5.73;;
8675;SDS011;4375;52.486;13.424;2023-05-23T04:03:42;18.30;;;5.87;;
8675;SDS011;4375;52.486;13.424;2023-05-23T04:06:08;20.90;;;5.27;;
8675;SDS011;4375;52.486;13.424;2023-05-23T04:08:33;19.70;;;6.07;;
8675;SDS011;4375;52.486;13.424;2023-05-23T04:10:59;21.80;;;6.23;;
8675;SDS011;4375;52.486;13.424;2023-05-23T04:13:28;22.93;;;6.50;;
8675;SDS011;4375;52.486;13.424;2023-05-23T04:15:55;23.17;;;6.07;;
8675;SDS011;4375;52.486;13.424;2023-05-23T04:18:21;18.70;;;5.83;;
8675;SDS011;4375;52.486;13.424;2023-05-23T04:20:47;23.03;;;7.20;;
8675;SDS011;4375;52.486;13.424;2023-05-23T04:23:13;19.87;;;6.30;;
8675;SDS011;4375;52.486;13.424;2023-05-23T04:25:38;20.07;;;6.10;;
8675;SDS011;4375;52.486;13.424;2023-05-23T04:28:04;19.40;;;5.70;;
8675;SDS011;4375;52.486;13.424;2023-05-23T04:30:30;19.97;;;6.27;;
8675;SDS011;4375;52.486;13.424;2023-05-23T04:32:57;20.53;;;6.27;;
8675;SDS011;4375;52.486;13.424;2023-05-23T04:35:24;24.63;;;6.30;;
8675;SDS011;4375;52.486;13.424;2023-05-23T04:37:52;21.07;;;6.10;;
8675;SDS011;4375;52.486;13.424;2023-05-23T04:40:21;23.47;;;6.30;;
8675;SDS011;4375;52.486;13.424;2023-05-23T04:42:49;20.40;;;6.10;;
8675;SDS011;4375;52.486;13.424;2023-05-23T04:45:17;20.10;;;6.40;;
8675;SDS011;4375;52.486;13.424;2023-05-23T04:47:46;18.47;;;5.80;;
8675;SDS011;4375;52.486;13.424;2023-05-23T04:50:12;21.27;;;5.80;;
8675;SDS011;4375;52.486;13.424;2023-05-23T04:52:40;21.30;;;6.47;;
8675;SDS011;4375;52.486;13.424;2023-05-23T04:55:06;29.60;;;6.27;;
8675;SDS011;4375;52.486;13.424;2023-05-23T04:57:33;20.40;;;6.07;;
8675;SDS011;4375;52.486;13.424;2023-05-23T04:59:59;22.10;;;6.50;;
8675;SDS011;4375;52.486;13.424;2023-05-23T05:02:25;20.83;;;6.57;;
8675;SDS011;4375;52.486;13.424;2023-05-23T05:04:51;25.87;;;6.53;;
8675;SDS011;4375;52.486;13.424;2023-05-23T05:07:17;22.80;;;5.93;;
8675;SDS011;4375;52.486;13.424;2023-05-23T05:09:43;22.50;;;6.87;;
8675;SDS011;4375;52.486;13.424;2023-05-23T05:12:09;21.77;;;6.03;;
8675;SDS011;4375;52.486;13.424;2023-05-23T05:14:34;20.33;;;6.40;;
8675;SDS011;4375;52.486;13.424;2023-05-23T05:17:01;24.30;;;7.13;;
8675;SDS011;4375;52.486;13.424;2023-05-23T05:19:28;26.07;;;6.50;;
8675;SDS011;4375;52.486;13.424;2023-05-23T05:21:53;23.27;;;6.60;;
8675;SDS011;4375;52.486;13.424;2023-05-23T05:24:19;20.40;;;6.90;;
8675;SDS011;4375;52.486;13.424;2023-05-23T05:26:47;28.63;;;7.17;;
8675;SDS011;4375;52.486;13.424;2023-05-23T05:29:13;20.93;;;6.10;;
8675;SDS011;4375;52.486;13.424;2023-05-23T05:31:39;20.83;;;6.80;;
8675;SDS011;4375;52.486;13.424;2023-05-23T05:34:05;23.83;;;6.83;;
8675;SDS011;4375;52.486;13.424;2023-05-23T05:36:31;27.20;;;6.93;;
8675;SDS011;4375;52.486;13.424;2023-05-23T05:38:57;23.00;;;6.20;;
8675;SDS011;4375;52.486;13.424;2023-05-23T05:41:23;24.93;;;6.33;;
8675;SDS011;4375;52.486;13.424;2023-05-23T05:43:48;21.13;;;5.97;;
8675;SDS011;4375;52.486;13.424;2023-05-23T05:46:15;27.70;;;6.37;;
8675;SDS011;4375;52.486;13.424;2023-05-23T05:48:40;27.80;;;6.80;;
8675;SDS011;4375;52.486;13.424;2023-05-23T05:51:06;23.07;;;6.97;;
8675;SDS011;4375;52.486;13.424;2023-05-23T05:53:31;27.37;;;6.60;;
8675;SDS011;4375;52.486;13.424;2023-05-23T05:55:57;22.07;;;6.73;;
8675;SDS011;4375;52.486;13.424;2023-05-23T05:58:23;24.93;;;6.67;;
8675;SDS011;4375;52.486;13.424;2023-05-23T06:00:48;21.80;;;7.57;;
8675;SDS011;4375;52.486;13.424;2023-05-23T06:03:14;22.63;;;8.57;;
8675;SDS011;4375;52.486;13.424;2023-05-23T06:05:40;20.47;;;6.50;;
8675;SDS011;4375;52.486;13.424;2023-05-23T06:08:05;23.23;;;7.47;;
8675;SDS011;4375;52.486;13.424;2023-05-23T06:10:31;20.20;;;6.70;;
8675;SDS011;4375;52.486;13.424;2023-05-23T06:12:57;22.73;;;6.17;;
8675;SDS011;4375;52.486;13.424;2023-05-23T06:15:24;22.63;;;7.10;;
8675;SDS011;4375;52.486;13.424;2023-05-23T06:17:50;22.10;;;7.30;;
8675;SDS011;4375;52.486;13.424;2023-05-23T06:20:16;19.67;;;6.30;;
8675;SDS011;4375;52.486;13.424;2023-05-23T06:22:41;20.50;;;6.30;;
8675;SDS011;4375;52.486;13.424;2023-05-23T06:25:10;25.20;;;6.70;;
8675;SDS011;4375;52.486;13.424;2023-05-23T06:27:36;19.10;;;6.40;;
8675;SDS011;4375;52.486;13.424;2023-05-23T06:30:02;24.17;;;6.70;;
8675;SDS011;4375;52.486;13.424;2023-05-23T06:32:31;28.00;;;6.83;;
8675;SDS011;4375;52.486;13.424;2023-05-23T06:34:57;19.93;;;6.47;;
8675;SDS011;4375;52.486;13.424;2023-05-23T06:37:23;21.00;;;7.20;;
8675;SDS011;4375;52.486;13.424;2023-05-23T06:39:49;25.80;;;8.00;;
8675;SDS011;4375;52.486;13.424;2023-05-23T06:42:15;20.37;;;6.97;;
8675;SDS011;4375;52.486;13.424;2023-05-23T06:44:40;20.97;;;6.90;;
8675;SDS011;4375;52.486;13.424;2023-05-23T06:47:06;20.10;;;6.43;;
8675;SDS011;4375;52.486;13.424;2023-05-23T06:49:31;24.10;;;6.00;;
8675;SDS011;4375;52.486;13.424;2023-05-23T06:51:57;21.40;;;7.40;;
8675;SDS011;4375;52.486;13.424;2023-05-23T06:54:23;21.47;;;6.27;;
8675;SDS011;4375;52.486;13.424;2023-05-23T06:56:48;21.37;;;6.23;;
8675;SDS011;4375;52.486;13.424;2023-05-23T06:59:14;22.03;;;6.20;;
8675;SDS011;4375;52.486;13.424;2023-05-23T07:01:40;23.07;;;6.40;;
8675;SDS011;4375;52.486;13.424;2023-05-23T07:04:05;21.63;;;7.67;;
8675;SDS011;4375;52.486;13.424;2023-05-23T07:06:31;23.13;;;6.63;;
8675;SDS011;4375;52.486;13.424;2023-05-23T07:08:57;22.60;;;6.33;;
8675;SDS011;4375;52.486;13.424;2023-05-23T07:11:22;21.73;;;7.20;;
8675;SDS011;4375;52.486;13.424;2023-05-23T07:13:48;22.93;;;7.30;;
8675;SDS011;4375;52.486;13.424;2023-05-23T07:16:14;26.17;;;6.73;;
8675;SDS011;4375;52.486;13.424;2023-05-23T07:18:42;25.00;;;7.17;;
8675;SDS011;4375;52.486;13.424;2023-05-23T07:21:08;20.73;;;6.13;;
8675;SDS011;4375;52.486;13.424;2023-05-23T07:23:33;29.80;;;6.70;;
8675;SDS011;4375;52.486;13.424;2023-05-23T07:25:59;19.87;;;6.13;;
8675;SDS011;4375;52.486;13.424;2023-05-23T07:28:26;22.03;;;6.17;;
8675;SDS011;4375;52.486;13.424;2023-05-23T07:30:52;25.80;;;6.03;;
8675;SDS011;4375;52.486;13.424;2023-05-23T07:33:18;20.60;;;5.87;;
8675;SDS011;4375;52.486;13.424;2023-05-23T07:35:43;22.13;;;5.90;;
8675;SDS011;4375;52.486;13.424;2023-05-23T07:38:09;24.27;;;5.50;;
8675;SDS011;4375;52.486;13.424;2023-05-23T07:40:35;19.17;;;6.00;;
8675;SDS011;4375;52.486;13.424;2023-05-23T07:43:02;21.67;;;5.93;;
8675;SDS011;4375;52.486;13.424;2023-05-23T07:45:28;21.07;;;6.53;;
8675;SDS011;4375;52.486;13.424;2023-05-23T07:47:54;21.87;;;6.27;;
8675;SDS011;4375;52.486;13.424;2023-05-23T07:50:19;24.47;;;6.20;;
8675;SDS011;4375;52.486;13.424;2023-05-23T07:52:45;19.97;;;5.90;;
8675;SDS011;4375;52.486;13.424;2023-05-23T07:55:11;21.63;;;6.50;;
8675;SDS011;4375;52.486;13.424;2023-05-23T07:57:37;27.10;;;6.80;;
8675;SDS011;4375;52.486;13.424;2023-05-23T08:00:02;29.57;;;6.60;;
8675;SDS011;4375;52.486;13.424;2023-05-23T08:02:30;20.93;;;6.00;;
8675;SDS011;4375;52.486;13.424;2023-05-23T08:04:55;20.47;;;6.00;;
8675;SDS011;4375;52.486;13.424;2023-05-23T08:07:21;21.43;;;6.17;;
8675;SDS011;4375;52.486;13.424;2023-05-23T08:09:47;22.77;;;5.70;;
8675;SDS011;4375;52.486;13.424;2023-05-23T08:12:13;32.47;;;5.97;;
8675;SDS011;4375;52.486;13.424;2023-05-23T08:14:38;22.23;;;5.97;;
8675;SDS011;4375;52.486;13.424;2023-05-23T08:19:45;18.67;;;5.40;;
8675;SDS011;4375;52.486;13.424;2023-05-23T08:22:11;28.83;;;6.73;;
8675;SDS011;4375;52.486;13.424;2023-05-23T08:24:37;20.13;;;6.30;;
8675;SDS011;4375;52.486;13.424;2023-05-23T08:27:03;19.20;;;6.20;;
8675;SDS011;4375;52.486;13.424;2023-05-23T08:29:30;22.23;;;5.80;;
8675;SDS011;4375;52.486;13.424;2023-05-23T08:31:56;21.83;;;6.47;;
8675;SDS011;4375;52.486;13.424;2023-05-23T08:34:21;20.00;;;5.37;;
8675;SDS011;4375;52.486;13.424;2023-05-23T08:36:47;19.87;;;5.37;;
8675;SDS011;4375;52.486;13.424;2023-05-23T08:39:13;19.33;;;5.80;;
8675;SDS011;4375;52.486;13.424;2023-05-23T08:41:38;17.57;;;5.53;;
8675;SDS011;4375;52.486;13.424;2023-05-23T08:44:05;18.30;;;5.53;;
8675;SDS011;4375;52.486;13.424;2023-05-23T08:46:31;19.63;;;6.07;;
8675;SDS011;4375;52.486;13.424;2023-05-23T08:49:00;17.60;;;5.97;;
8675;SDS011;4375;52.486;13.424;2023-05-23T08:51:30;20.10;;;5.77;;
8675;SDS011;4375;52.486;13.424;2023-05-23T08:53:58;18.17;;;5.70;;
8675;SDS011;4375;52.486;13.424;2023-05-23T08:56:24;19.93;;;6.17;;
8675;SDS011;4375;52.486;13.424;2023-05-23T08:58:52;18.50;;;5.67;;
8675;SDS011;4375;52.486;13.424;2023-05-23T09:01:18;22.80;;;5.63;;
8675;SDS011;4375;52.486;13.424;2023-05-23T09:03:44;25.67;;;6.60;;
8675;SDS011;4375;52.486;13.424;2023-05-23T09:06:10;19.33;;;6.10;;
8675;SDS011;4375;52.486;13.424;2023-05-23T09:08:36;21.53;;;6.97;;
8675;SDS011;4375;52.486;13.424;2023-05-23T09:11:03;18.80;;;5.70;;
8675;SDS011;4375;52.486;13.424;2023-05-23T09:13:30;22.93;;;6.00;;
8675;SDS011;4375;52.486;13.424;2023-05-23T09:18:26;19.00;;;5.53;;
8675;SDS011;4375;52.486;13.424;2023-05-23T09:21:01;21.33;;;5.73;;
8675;SDS011;4375;52.486;13.424;2023-05-23T09:23:31;23.20;;;5.93;;
8675;SDS011;4375;52.486;13.424;2023-05-23T09:26:00;18.00;;;5.73;;
8675;SDS011;4375;52.486;13.424;2023-05-23T09:28:27;20.17;;;6.27;;
8675;SDS011;4375;52.486;13.424;2023-05-23T09:30:59;20.60;;;5.77;;
8675;SDS011;4375;52.486;13.424;2023-05-23T09:33:33;19.07;;;6.27;;
8675;SDS011;4375;52.486;13.424;2023-05-23T09:36:12;19.63;;;6.73;;
8675;SDS011;4375;52.486;13.424;2023-05-23T09:38:38;19.80;;;6.53;;
8675;SDS011;4375;52.486;13.424;2023-05-23T09:41:05;19.57;;;6.43;;
8675;SDS011;4375;52.486;13.424;2023-05-23T09:43:32;22.20;;;6.90;;
8675;SDS011;4375;52.486;13.424;2023-05-23T09:46:08;24.53;;;6.90;;
8675;SDS011;4375;52.486;13.424;2023-05-23T09:48:35;21.23;;;6.60;;
8675;SDS011;4375;52.486;13.424;2023-05-23T09:51:04;21.93;;;5.97;;
8675;SDS011;4375;52.486;13.424;2023-05-23T09:53:31;21.43;;;6.70;;
8675;SDS011;4375;52.486;13.424;2023-05-23T09:56:00;18.27;;;6.00;;
8675;SDS011;4375;52.486;13.424;2023-05-23T09:58:27;19.33;;;5.67;;
8675;SDS011;4375;52.486;13.424;2023-05-23T10:00:54;26.27;;;7.27;;
8675;SDS011;4375;52.486;13.424;2023-05-23T10:03:30;20.97;;;7.47;;
8675;SDS011;4375;52.486;13.424;2023-05-23T10:06:12;21.00;;;6.60;;
8675;SDS011;4375;52.486;13.424;2023-05-23T10:09:05;18.40;;;6.13;;
8675;SDS011;4375;52.486;13.424;2023-05-23T10:14:04;32.77;;;17.77;;
8675;SDS011;4375;52.486;13.424;2023-05-23T10:16:37;21.30;;;7.70;;
8675;SDS011;4375;52.486;13.424;2023-05-23T10:19:57;20.20;;;6.67;;
8675;SDS011;4375;52.486;13.424;2023-05-23T10:21:57;19.50;;;6.30;;
8675;SDS011;4375;52.486;13.424;2023-05-23T10:24:25;26.20;;;7.50;;
8675;SDS011;4375;52.486;13.424;2023-05-23T10:26:52;22.03;;;8.10;;
8675;SDS011;4375;52.486;13.424;2023-05-23T10:29:20;24.33;;;10.13;;
8675;SDS011;4375;52.486;13.424;2023-05-23T10:31:46;21.87;;;9.27;;
8675;SDS011;4375;52.486;13.424;2023-05-23T10:34:15;29.60;;;8.63;;
8675;SDS011;4375;52.486;13.424;2023-05-23T10:36:53;23.67;;;9.43;;
8675;SDS011;4375;52.486;13.424;2023-05-23T10:42:14;21.43;;;8.90;;
8675;SDS011;4375;52.486;13.424;2023-05-23T10:44:52;27.43;;;9.90;;
8675;SDS011;4375;52.486;13.424;2023-05-23T10:47:27;21.90;;;9.90;;
8675;SDS011;4375;52.486;13.424;2023-05-23T10:49:53;22.97;;;10.47;;
8675;SDS011;4375;52.486;13.424;2023-05-23T10:52:22;22.87;;;10.77;;
8675;SDS011;4375;52.486;13.424;2023-05-23T10:54:53;27.13;;;10.33;;
8675;SDS011;4375;52.486;13.424;2023-05-23T10:57:24;27.40;;;10.40;;
8675;SDS011;4375;52.486;13.424;2023-05-23T10:59:53;22.60;;;9.20;;
8675;SDS011;4375;52.486;13.424;2023-05-23T11:02:26;24.07;;;10.67;;
8675;SDS011;4375;52.486;13.424;2023-05-23T11:07:45;26.97;;;11.90;;
8675;SDS011;4375;52.486;13.424;2023-05-23T11:10:11;22.83;;;10.77;;
8675;SDS011;4375;52.486;13.424;2023-05-23T11:12:41;24.57;;;10.73;;
8675;SDS011;4375;52.486;13.424;2023-05-23T11:17:51;27.20;;;11.90;;
8675;SDS011;4375;52.486;13.424;2023-05-23T11:20:18;27.70;;;11.77;;
8675;SDS011;4375;52.486;13.424;2023-05-23T11:23:00;27.50;;;13.60;;
8675;SDS011;4375;52.486;13.424;2023-05-23T11:28:16;25.43;;;11.77;;
8675;SDS011;4375;52.486;13.424;2023-05-23T11:30:42;26.33;;;12.63;;
8675;SDS011;4375;52.486;13.424;2023-05-23T11:33:11;27.07;;;13.47;;
8675;SDS011;4375;52.486;13.424;2023-05-23T11:35:38;24.97;;;12.60;;
8675;SDS011;4375;52.486;13.424;2023-05-23T11:38:05;26.30;;;12.43;;
8675;SDS011;4375;52.486;13.424;2023-05-23T11:40:34;33.60;;;13.87;;
8675;SDS011;4375;52.486;13.424;2023-05-23T11:43:05;35.43;;;14.10;;
8675;SDS011;4375;52.486;13.424;2023-05-23T11:45:38;27.27;;;13.47;;
8675;SDS011;4375;52.486;13.424;2023-05-23T11:48:08;31.67;;;14.90;;
8675;SDS011;4375;52.486;13.424;2023-05-23T11:50:44;31.67;;;15.90;;
8675;SDS011;4375;52.486;13.424;2023-05-23T11:53:14;29.70;;;14.20;;
8675;SDS011;4375;52.486;13.424;2023-05-23T11:55:55;29.83;;;15.53;;
8675;SDS011;4375;52.486;13.424;2023-05-23T11:58:26;32.20;;;16.13;;
8675;SDS011;4375;52.486;13.424;2023-05-23T12:01:00;27.70;;;14.13;;
8675;SDS011;4375;52.486;13.424;2023-05-23T12:03:27;31.57;;;16.53;;
8675;SDS011;4375;52.486;13.424;2023-05-23T12:05:53;32.93;;;15.90;;
8675;SDS011;4375;52.486;13.424;2023-05-23T12:08:19;32.27;;;15.07;;
8675;SDS011;4375;52.486;13.424;2023-05-23T12:10:49;30.50;;;14.57;;
8675;SDS011;4375;52.486;13.424;2023-05-23T12:13:24;32.43;;;15.07;;
8675;SDS011;4375;52.486;13.424;2023-05-23T12:15:54;31.60;;;15.33;;
8675;SDS011;4375;52.486;13.424;2023-05-23T12:18:22;30.57;;;14.90;;
8675;SDS011;4375;52.486;13.424;2023-05-23T12:20:48;29.60;;;13.53;;
8675;SDS011;4375;52.486;13.424;2023-05-23T12:23:19;29.93;;;14.77;;
8675;SDS011;4375;52.486;13.424;2023-05-23T12:25:52;37.13;;;16.00;;
8675;SDS011;4375;52.486;13.424;2023-05-23T12:28:19;29.23;;;14.30;;
8675;SDS011;4375;52.486;13.424;2023-05-23T12:30:45;34.77;;;15.73;;
8675;SDS011;4375;52.486;13.424;2023-05-23T12:33:12;29.47;;;14.77;;
8675;SDS011;4375;52.486;13.424;2023-05-23T12:35:42;32.03;;;15.67;;
8675;SDS011;4375;52.486;13.424;2023-05-23T12:38:09;30.80;;;14.87;;
8675;SDS011;4375;52.486;13.424;2023-05-23T12:40:38;33.87;;;15.80;;
8675;SDS011;4375;52.486;13.424;2023-05-23T12:43:07;26.97;;;13.43;;
8675;SDS011;4375;52.486;13.424;2023-05-23T12:45:34;29.03;;;14.73;;
8675;SDS011;4375;52.486;13.424;2023-05-23T12:48:04;33.17;;;15.93;;
8675;SDS011;4375;52.486;13.424;2023-05-23T12:50:31;29.97;;;14.63;;
8675;SDS011;4375;52.486;13.424;2023-05-23T12:52:57;30.37;;;14.67;;
8675;SDS011;4375;52.486;13.424;2023-05-23T12:55:22;29.70;;;14.70;;
8675;SDS011;4375;52.486;13.424;2023-05-23T12:57:48;29.70;;;13.90;;
8675;SDS011;4375;52.486;13.424;2023-05-23T13:00:14;27.67;;;13.37;;
8675;SDS011;4375;52.486;13.424;2023-05-23T13:02:39;27.40;;;13.40;;
8675;SDS011;4375;52.486;13.424;2023-05-23T13:05:05;27.20;;;12.87;;
8675;SDS011;4375;52.486;13.424;2023-05-23T13:07:32;26.33;;;12.33;;
8675;SDS011;4375;52.486;13.424;2023-05-23T13:09:57;25.70;;;12.00;;
8675;SDS011;4375;52.486;13.424;2023-05-23T13:12:23;27.77;;;11.80;;
8675;SDS011;4375;52.486;13.424;2023-05-23T13:14:49;30.80;;;13.10;;
8675;SDS011;4375;52.486;13.424;2023-05-23T13:17:15;27.47;;;12.20;;
8675;SDS011;4375;52.486;13.424;2023-05-23T13:19:41;28.53;;;12.30;;
8675;SDS011;4375;52.486;13.424;2023-05-23T13:22:07;29.10;;;11.97;;
8675;SDS011;4375;52.486;13.424;2023-05-23T13:24:35;27.13;;;13.17;;
8675;SDS011;4375;52.486;13.424;2023-05-23T13:27:01;30.10;;;12.90;;
8675;SDS011;4375;52.486;13.424;2023-05-23T13:29:28;30.77;;;15.23;;
8675;SDS011;4375;52.486;13.424;2023-05-23T13:31:53;31.17;;;15.33;;
8675;SDS011;4375;52.486;13.424;2023-05-23T13:34:19;34.43;;;16.43;;
8675;SDS011;4375;52.486;13.424;2023-05-23T13:36:45;36.30;;;15.60;;
8675;SDS011;4375;52.486;13.424;2023-05-23T13:39:11;30.00;;;16.27;;
8675;SDS011;4375;52.486;13.424;2023-05-23T13:41:37;34.63;;;16.00;;
8675;SDS011;4375;52.486;13.424;2023-05-23T13:44:02;31.20;;;14.83;;
8675;SDS011;4375;52.486;13.424;2023-05-23T13:46:28;36.27;;;17.60;;
8675;SDS011;4375;52.486;13.424;2023-05-23T13:48:53;31.20;;;15.60;;
8675;SDS011;4375;52.486;13.424;2023-05-23T13:51:19;33.40;;;16.60;;
8675;SDS011;4375;52.486;13.424;2023-05-23T13:53:45;30.73;;;15.30;;
8675;SDS011;4375;52.486;13.424;2023-05-23T13:56:13;32.67;;;15.90;;
8675;SDS011;4375;52.486;13.424;2023-05-23T13:58:39;34.57;;;15.90;;
8675;SDS011;4375;52.486;13.424;2023-05-23T14:01:06;36.30;;;15.33;;
8675;SDS011;4375;52.486;13.424;2023-05-23T14:03:33;33.70;;;16.03;;
8675;SDS011;4375;52.486;13.424;2023-05-23T14:05:58;31.50;;;14.30;;
8675;SDS011;4375;52.486;13.424;2023-05-23T14:08:24;33.20;;;13.20;;
8675;SDS011;4375;52.486;13.424;2023-05-23T14:10:50;30.10;;;13.70;;
8675;SDS011;4375;52.486;13.424;2023-05-23T14:13:15;35.27;;;14.00;;
8675;SDS011;4375;52.486;13.424;2023-05-23T14:15:42;30.40;;;13.30;;
8675;SDS011;4375;52.486;13.424;2023-05-23T14:18:07;34.13;;;13.57;;
8675;SDS011;4375;52.486;13.424;2023-05-23T14:20:33;33.63;;;14.23;;
8675;SDS011;4375;52.486;13.424;2023-05-23T14:22:59;34.10;;;15.60;;
8675;SDS011;4375;52.486;13.424;2023-05-23T14:25:24;27.33;;;13.47;;
8675;SDS011;4375;52.486;13.424;2023-05-23T14:27:50;35.23;;;17.00;;
8675;SDS011;4375;52.486;13.424;2023-05-23T14:30:16;39.77;;;16.17;;
8675;SDS011;4375;52.486;13.424;2023-05-23T14:32:41;33.17;;;15.20;;
8675;SDS011;4375;52.486;13.424;2023-05-23T14:35:09;33.70;;;15.40;;
8675;SDS011;4375;52.486;13.424;2023-05-23T14:37:35;33.20;;;16.10;;
8675;SDS011;4375;52.486;13.424;2023-05-23T14:40:02;38.83;;;17.67;;
8675;SDS011;4375;52.486;13.424;2023-05-23T14:42:31;32.13;;;15.37;;
8675;SDS011;4375;52.486;13.424;2023-05-23T14:44:56;34.47;;;15.57;;
8675;SDS011;4375;52.486;13.424;2023-05-23T14:47:22;33.10;;;15.67;;
8675;SDS011;4375;52.486;13.424;2023-05-23T14:49:48;39.00;;;17.23;;
8675;SDS011;4375;52.486;13.424;2023-05-23T14:52:14;31.40;;;14.10;;
8675;SDS011;4375;52.486;13.424;2023-05-23T14:54:48;32.67;;;17.30;;
8675;SDS011;4375;52.486;13.424;2023-05-23T14:57:13;32.00;;;15.13;;
8675;SDS011;4375;52.486;13.424;2023-05-23T14:59:39;30.40;;;13.90;;
8675;SDS011;4375;52.486;13.424;2023-05-23T15:02:05;32.13;;;14.63;;
8675;SDS011;4375;52.486;13.424;2023-05-23T15:04:32;32.33;;;14.27;;
8675;SDS011;4375;52.486;13.424;2023-05-23T15:06:58;28.50;;;12.93;;
8675;SDS011;4375;52.486;13.424;2023-05-23T15:09:24;27.30;;;12.73;;